sensor_id;sensor_type;location;lat;lon;timestamp;pressure;altitude;pressure_sealevel;temperature;humidity
40872;BME280;26591;43.264;26.940;2023-08-30T00:02:18;97965.59;;;25.68;69.24
40872;BME280;26591;43.264;26.940;2023-08-30T00:04:43;97969.19;;;25.63;70.00
40872;BME280;26591;43.264;26.940;2023-08-30T00:07:09;97969.81;;;25.79;68.74
40872;BME280;26591;43.264;26.940;2023-08-30T00:09:36;97966.22;;;25.84;67.97
40872;BME280;26591;43.264;26.940;2023-08-30T00:12:02;97965.53;;;25.73;68.95
40872;BME280;26591;43.264;26.940;2023-08-30T00:14:27;97961.59;;;25.65;70.18
40872;BME280;26591;43.264;26.940;2023-08-30T00:16:53;97969.28;;;25.58;70.34
40872;BME280;26591;43.264;26.940;2023-08-30T00:19:18;97967.16;;;25.06;72.50
40872;BME280;26591;43.264;26.940;2023-08-30T00:21:44;97969.81;;;25.11;72.73
40872;BME280;26591;43.264;26.940;2023-08-30T00:24:10;97973.81;;;25.38;71.48
40872;BME280;26591;43.264;26.940;2023-08-30T00:26:35;97961.78;;;25.50;70.82
40872;BME280;26591;43.264;26.940;2023-08-30T00:29:01;97963.56;;;25.59;70.83
40872;BME280;26591;43.264;26.940;2023-08-30T00:31:26;97967.88;;;25.61;70.98
40872;BME280;26591;43.264;26.940;2023-08-30T00:33:52;97959.19;;;25.64;70.28
40872;BME280;26591;43.264;26.940;2023-08-30T00:36:17;97959.47;;;25.62;70.62
40872;BME280;26591;43.264;26.940;2023-08-30T00:38:43;97956.31;;;25.74;69.64
40872;BME280;26591;43.264;26.940;2023-08-30T00:41:09;97948.50;;;25.72;70.02
40872;BME280;26591;43.264;26.940;2023-08-30T00:43:34;97953.91;;;25.72;69.83
40872;BME280;26591;43.264;26.940;2023-08-30T00:46:00;97954.28;;;25.85;69.60
40872;BME280;26591;43.264;26.940;2023-08-30T00:48:27;97946.16;;;25.85;69.54
40872;BME280;26591;43.264;26.940;2023-08-30T00:50:53;97951.47;;;25.90;69.22
40872;BME280;26591;43.264;26.940;2023-08-30T00:53:18;97950.47;;;25.86;69.28
40872;BME280;26591;43.264;26.940;2023-08-30T00:55:44;97957.00;;;25.85;69.42
40872;BME280;26591;43.264;26.940;2023-08-30T00:58:10;97952.88;;;25.87;69.45
40872;BME280;26591;43.264;26.940;2023-08-30T01:00:36;97948.56;;;25.67;71.04
40872;BME280;26591;43.264;26.940;2023-08-30T01:03:03;97945.34;;;25.65;71.36
40872;BME280;26591;43.264;26.940;2023-08-30T01:05:29;97948.19;;;25.74;70.69
40872;BME280;26591;43.264;26.940;2023-08-30T01:07:55;97948.78;;;25.71;71.01
40872;BME280;26591;43.264;26.940;2023-08-30T01:10:26;97951.22;;;25.72;70.08
40872;BME280;26591;43.264;26.940;2023-08-30T01:12:57;97945.50;;;25.74;69.93
40872;BME280;26591;43.264;26.940;2023-08-30T01:15:26;97946.53;;;25.78;70.40
40872;BME280;26591;43.264;26.940;2023-08-30T01:17:53;97949.22;;;25.78;70.01
40872;BME280;26591;43.264;26.940;2023-08-30T01:20:20;97957.78;;;25.85;69.71
40872;BME280;26591;43.264;26.940;2023-08-30T01:23:06;97953.59;;;25.55;62.13
40872;BME280;26591;43.264;26.940;2023-08-30T01:25:55;97948.50;;;25.72;59.24
40872;BME280;26591;43.264;26.940;2023-08-30T01:28:24;97943.81;;;25.78;60.59
40872;BME280;26591;43.264;26.940;2023-08-30T01:30:52;97948.88;;;25.85;63.51
40872;BME280;26591;43.264;26.940;2023-08-30T01:33:23;97945.53;;;25.50;70.18
40872;BME280;26591;43.264;26.940;2023-08-30T01:35:49;97951.22;;;25.72;65.98
40872;BME280;26591;43.264;26.940;2023-08-30T01:38:15;97947.25;;;25.84;64.43
40872;BME280;26591;43.264;26.940;2023-08-30T01:40:43;97945.78;;;25.92;68.41
40872;BME280;26591;43.264;26.940;2023-08-30T01:43:10;97949.00;;;25.31;73.15
40872;BME280;26591;43.264;26.940;2023-08-30T01:45:40;97945.84;;;25.48;70.42
40872;BME280;26591;43.264;26.940;2023-08-30T01:48:12;97950.59;;;25.56;70.04
40872;BME280;26591;43.264;26.940;2023-08-30T01:50:39;97951.06;;;25.83;68.93
40872;BME280;26591;43.264;26.940;2023-08-30T01:53:06;97948.88;;;25.85;67.25
40872;BME280;26591;43.264;26.940;2023-08-30T01:55:33;97947.16;;;25.89;69.41
40872;BME280;26591;43.264;26.940;2023-08-30T01:57:59;97946.22;;;25.80;71.52
40872;BME280;26591;43.264;26.940;2023-08-30T02:00:25;97949.72;;;25.37;74.58
40872;BME280;26591;43.264;26.940;2023-08-30T02:02:50;97950.31;;;25.34;75.21
40872;BME280;26591;43.264;26.940;2023-08-30T02:05:16;97938.97;;;25.56;71.97
40872;BME280;26591;43.264;26.940;2023-08-30T02:08:07;97948.03;;;25.84;70.08
40872;BME280;26591;43.264;26.940;2023-08-30T02:10:35;97936.19;;;25.99;70.17
40872;BME280;26591;43.264;26.940;2023-08-30T02:13:04;97944.81;;;26.20;69.14
40872;BME280;26591;43.264;26.940;2023-08-30T02:15:31;97944.66;;;26.31;69.17
40872;BME280;26591;43.264;26.940;2023-08-30T02:17:59;97951.72;;;26.46;67.78
40872;BME280;26591;43.264;26.940;2023-08-30T02:20:25;97947.75;;;26.57;67.45
40872;BME280;26591;43.264;26.940;2023-08-30T02:22:50;97944.31;;;26.65;67.27
40872;BME280;26591;43.264;26.940;2023-08-30T02:25:16;97941.91;;;26.78;66.73
40872;BME280;26591;43.264;26.940;2023-08-30T02:27:41;97938.66;;;26.81;66.71
40872;BME280;26591;43.264;26.940;2023-08-30T02:30:07;97938.84;;;26.85;66.56
40872;BME280;26591;43.264;26.940;2023-08-30T02:32:33;97942.88;;;26.87;66.35
40872;BME280;26591;43.264;26.940;2023-08-30T02:35:00;97945.28;;;26.89;66.88
40872;BME280;26591;43.264;26.940;2023-08-30T02:37:25;97940.28;;;26.96;66.73
40872;BME280;26591;43.264;26.940;2023-08-30T02:39:51;97942.69;;;26.98;66.71
40872;BME280;26591;43.264;26.940;2023-08-30T02:42:16;97942.38;;;26.99;66.13
40872;BME280;26591;43.264;26.940;2023-08-30T02:44:42;97938.06;;;26.98;66.27
40872;BME280;26591;43.264;26.940;2023-08-30T02:47:07;97935.94;;;26.95;66.74
40872;BME280;26591;43.264;26.940;2023-08-30T02:49:33;97939.19;;;26.97;66.79
40872;BME280;26591;43.264;26.940;2023-08-30T02:51:58;97935.03;;;27.00;66.54
40872;BME280;26591;43.264;26.940;2023-08-30T02:54:24;97924.56;;;27.07;66.08
40872;BME280;26591;43.264;26.940;2023-08-30T02:56:49;97936.94;;;27.13;66.08
40872;BME280;26591;43.264;26.940;2023-08-30T02:59:15;97935.53;;;27.16;65.89
40872;BME280;26591;43.264;26.940;2023-08-30T03:01:40;97936.03;;;27.18;65.49
40872;BME280;26591;43.264;26.940;2023-08-30T03:04:07;97940.97;;;27.16;65.15
40872;BME280;26591;43.264;26.940;2023-08-30T03:06:33;97943.81;;;27.10;65.27
40872;BME280;26591;43.264;26.940;2023-08-30T03:08:59;97948.03;;;27.03;65.60
40872;BME280;26591;43.264;26.940;2023-08-30T03:11:25;97947.81;;;26.85;66.33
40872;BME280;26591;43.264;26.940;2023-08-30T03:13:50;97948.44;;;26.77;66.62
40872;BME280;26591;43.264;26.940;2023-08-30T03:16:16;97954.34;;;26.84;66.01
40872;BME280;26591;43.264;26.940;2023-08-30T03:18:43;97948.31;;;26.87;65.29
40872;BME280;26591;43.264;26.940;2023-08-30T03:21:09;97952.84;;;26.92;64.84
40872;BME280;26591;43.264;26.940;2023-08-30T03:23:35;97954.97;;;26.95;64.95
40872;BME280;26591;43.264;26.940;2023-08-30T03:26:11;97959.47;;;27.00;64.84
40872;BME280;26591;43.264;26.940;2023-08-30T03:28:37;97960.78;;;27.02;64.02
40872;BME280;26591;43.264;26.940;2023-08-30T03:31:13;97963.22;;;27.04;64.69
40872;BME280;26591;43.264;26.940;2023-08-30T03:33:39;97967.03;;;27.03;64.09
40872;BME280;26591;43.264;26.940;2023-08-30T03:36:07;97953.44;;;27.03;64.60
40872;BME280;26591;43.264;26.940;2023-08-30T03:38:34;97962.91;;;27.05;64.43
40872;BME280;26591;43.264;26.940;2023-08-30T03:40:59;97965.22;;;26.98;64.47
40872;BME280;26591;43.264;26.940;2023-08-30T03:43:25;97966.84;;;26.66;65.52
40872;BME280;26591;43.264;26.940;2023-08-30T03:45:50;97967.84;;;26.56;65.48
40872;BME280;26591;43.264;26.940;2023-08-30T03:48:17;97967.38;;;26.68;64.96
40872;BME280;26591;43.264;26.940;2023-08-30T03:50:43;97973.66;;;26.63;64.31
40872;BME280;26591;43.264;26.940;2023-08-30T03:53:08;97978.94;;;26.74;63.67
40872;BME280;26591;43.264;26.940;2023-08-30T03:55:34;97970.13;;;26.82;63.43
40872;BME280;26591;43.264;26.940;2023-08-30T03:57:59;97975.56;;;26.96;63.15
40872;BME280;26591;43.264;26.940;2023-08-30T04:00:25;97986.53;;;27.05;63.04
40872;BME280;26591;43.264;26.940;2023-08-30T04:02:50;97989.66;;;27.12;62.38
40872;BME280;26591;43.264;26.940;2023-08-30T04:05:16;97981.00;;;27.10;63.58
40872;BME280;26591;43.264;26.940;2023-08-30T04:07:41;97984.94;;;27.32;62.64
40872;BME280;26591;43.264;26.940;2023-08-30T04:10:07;97983.19;;;27.36;62.68
40872;BME280;26591;43.264;26.940;2023-08-30T04:12:34;97979.59;;;27.54;62.92
40872;BME280;26591;43.264;26.940;2023-08-30T04:15:02;97981.97;;;27.70;62.48
40872;BME280;26591;43.264;26.940;2023-08-30T04:17:28;97982.09;;;28.01;61.72
40872;BME280;26591;43.264;26.940;2023-08-30T04:19:54;97984.69;;;28.21;61.53
40872;BME280;26591;43.264;26.940;2023-08-30T04:22:20;97985.06;;;28.28;61.66
40872;BME280;26591;43.264;26.940;2023-08-30T04:24:46;97994.75;;;28.88;59.15
40872;BME280;26591;43.264;26.940;2023-08-30T04:27:12;97986.53;;;29.20;58.46
40872;BME280;26591;43.264;26.940;2023-08-30T04:29:37;97994.84;;;29.55;57.78
40872;BME280;26591;43.264;26.940;2023-08-30T04:32:03;97987.84;;;29.98;57.21
40872;BME280;26591;43.264;26.940;2023-08-30T04:34:30;97987.72;;;30.21;57.21
40872;BME280;26591;43.264;26.940;2023-08-30T04:36:56;97994.44;;;30.41;56.71
40872;BME280;26591;43.264;26.940;2023-08-30T04:39:21;97993.94;;;30.56;57.21
40872;BME280;26591;43.264;26.940;2023-08-30T04:41:47;97996.31;;;30.67;56.81
40872;BME280;26591;43.264;26.940;2023-08-30T04:44:13;97995.53;;;30.49;58.13
40872;BME280;26591;43.264;26.940;2023-08-30T04:46:38;97991.13;;;30.83;57.34
40872;BME280;26591;43.264;26.940;2023-08-30T04:49:04;97995.91;;;30.95;57.88
40872;BME280;26591;43.264;26.940;2023-08-30T04:51:30;97992.59;;;31.28;54.94
40872;BME280;26591;43.264;26.940;2023-08-30T04:53:56;97982.31;;;31.25;55.26
40872;BME280;26591;43.264;26.940;2023-08-30T04:56:25;97990.53;;;30.59;56.87
40872;BME280;26591;43.264;26.940;2023-08-30T04:58:51;97982.06;;;29.91;58.40
40872;BME280;26591;43.264;26.940;2023-08-30T05:01:17;97984.94;;;29.94;58.08
40872;BME280;26591;43.264;26.940;2023-08-30T05:03:42;97981.63;;;29.97;58.87
40872;BME280;26591;43.264;26.940;2023-08-30T05:06:08;97982.06;;;30.26;58.60
40872;BME280;26591;43.264;26.940;2023-08-30T05:08:34;97987.63;;;30.82;57.77
40872;BME280;26591;43.264;26.940;2023-08-30T05:10:59;97994.97;;;30.90;56.89
40872;BME280;26591;43.264;26.940;2023-08-30T05:13:25;97996.53;;;31.00;56.34
40872;BME280;26591;43.264;26.940;2023-08-30T05:15:50;97991.44;;;31.38;55.79
40872;BME280;26591;43.264;26.940;2023-08-30T05:18:18;97996.25;;;31.62;55.08
40872;BME280;26591;43.264;26.940;2023-08-30T05:20:44;97996.16;;;32.01;54.63
40872;BME280;26591;43.264;26.940;2023-08-30T05:23:09;98008.63;;;32.53;54.35
40872;BME280;26591;43.264;26.940;2023-08-30T05:25:35;98015.53;;;32.71;53.58
40872;BME280;26591;43.264;26.940;2023-08-30T05:28:00;98013.31;;;33.11;52.53
40872;BME280;26591;43.264;26.940;2023-08-30T05:30:26;98009.13;;;33.26;52.00
40872;BME280;26591;43.264;26.940;2023-08-30T05:32:51;98006.50;;;33.17;51.62
40872;BME280;26591;43.264;26.940;2023-08-30T05:35:17;98020.75;;;33.23;51.91
40872;BME280;26591;43.264;26.940;2023-08-30T05:37:43;98016.97;;;33.02;52.14
40872;BME280;26591;43.264;26.940;2023-08-30T05:40:09;98014.25;;;33.27;51.78
40872;BME280;26591;43.264;26.940;2023-08-30T05:42:34;98017.69;;;33.74;50.64
40872;BME280;26591;43.264;26.940;2023-08-30T05:45:00;98015.38;;;34.29;49.26
40872;BME280;26591;43.264;26.940;2023-08-30T05:47:26;98011.09;;;34.16;49.43
40872;BME280;26591;43.264;26.940;2023-08-30T05:49:51;98016.00;;;34.22;49.34
40872;BME280;26591;43.264;26.940;2023-08-30T05:52:17;98015.13;;;32.94;51.61
40872;BME280;26591;43.264;26.940;2023-08-30T05:54:43;98020.50;;;33.03;51.51
40872;BME280;26591;43.264;26.940;2023-08-30T05:57:10;98013.59;;;33.55;50.23
40872;BME280;26591;43.264;26.940;2023-08-30T05:59:35;98019.59;;;33.98;49.42
40872;BME280;26591;43.264;26.940;2023-08-30T06:02:01;98027.28;;;33.80;49.65
40872;BME280;26591;43.264;26.940;2023-08-30T06:04:27;98025.81;;;33.58;50.15
40872;BME280;26591;43.264;26.940;2023-08-30T06:06:52;98024.31;;;31.50;54.59
40872;BME280;26591;43.264;26.940;2023-08-30T06:09:18;98023.63;;;32.34;53.61
40872;BME280;26591;43.264;26.940;2023-08-30T06:11:43;98029.66;;;33.07;52.04
40872;BME280;26591;43.264;26.940;2023-08-30T06:14:09;98036.91;;;33.37;51.19
40872;BME280;26591;43.264;26.940;2023-08-30T06:16:35;98033.78;;;33.13;51.81
40872;BME280;26591;43.264;26.940;2023-08-30T06:19:00;98040.97;;;33.06;51.10
40872;BME280;26591;43.264;26.940;2023-08-30T06:21:26;98039.69;;;32.57;52.31
40872;BME280;26591;43.264;26.940;2023-08-30T06:23:52;98035.59;;;32.97;51.54
40872;BME280;26591;43.264;26.940;2023-08-30T06:26:18;98035.25;;;33.11;51.26
40872;BME280;26591;43.264;26.940;2023-08-30T06:28:43;98038.84;;;33.61;50.09
40872;BME280;26591;43.264;26.940;2023-08-30T06:31:10;98044.44;;;33.40;50.21
40872;BME280;26591;43.264;26.940;2023-08-30T06:33:35;98035.22;;;33.44;50.18
40872;BME280;26591;43.264;26.940;2023-08-30T06:36:01;98055.09;;;33.41;50.40
40872;BME280;26591;43.264;26.940;2023-08-30T06:38:27;98048.44;;;32.50;51.47
40872;BME280;26591;43.264;26.940;2023-08-30T06:40:52;98035.00;;;31.34;54.34
40872;BME280;26591;43.264;26.940;2023-08-30T06:43:18;98044.25;;;32.32;53.19
40872;BME280;26591;43.264;26.940;2023-08-30T06:45:44;98045.69;;;31.87;54.31
40872;BME280;26591;43.264;26.940;2023-08-30T06:48:10;98040.69;;;31.89;52.91
40872;BME280;26591;43.264;26.940;2023-08-30T06:50:36;98040.28;;;31.78;54.35
40872;BME280;26591;43.264;26.940;2023-08-30T06:53:02;98039.34;;;32.37;52.26
40872;BME280;26591;43.264;26.940;2023-08-30T06:55:28;98042.69;;;32.64;52.18
40872;BME280;26591;43.264;26.940;2023-08-30T06:57:54;98043.31;;;32.82;50.93
40872;BME280;26591;43.264;26.940;2023-08-30T07:00:20;98048.63;;;33.25;49.50
40872;BME280;26591;43.264;26.940;2023-08-30T07:02:46;98036.56;;;33.38;49.31
40872;BME280;26591;43.264;26.940;2023-08-30T07:05:12;98045.13;;;33.74;49.14
40872;BME280;26591;43.264;26.940;2023-08-30T07:07:38;98048.22;;;33.60;48.40
40872;BME280;26591;43.264;26.940;2023-08-30T07:10:04;98053.31;;;33.24;48.71
40872;BME280;26591;43.264;26.940;2023-08-30T07:12:29;98051.75;;;33.60;48.43
40872;BME280;26591;43.264;26.940;2023-08-30T07:14:55;98050.16;;;33.97;48.69
40872;BME280;26591;43.264;26.940;2023-08-30T07:17:21;98040.78;;;33.60;48.32
40872;BME280;26591;43.264;26.940;2023-08-30T07:19:46;98050.38;;;32.29;50.90
40872;BME280;26591;43.264;26.940;2023-08-30T07:22:12;98044.91;;;32.29;52.10
40872;BME280;26591;43.264;26.940;2023-08-30T07:24:37;98042.66;;;32.98;50.38
40872;BME280;26591;43.264;26.940;2023-08-30T07:27:03;98042.56;;;33.07;49.95
40872;BME280;26591;43.264;26.940;2023-08-30T07:29:29;98046.75;;;30.25;54.33
40872;BME280;26591;43.264;26.940;2023-08-30T07:31:54;98050.88;;;31.02;52.56
40872;BME280;26591;43.264;26.940;2023-08-30T07:34:20;98046.63;;;31.91;51.07
40872;BME280;26591;43.264;26.940;2023-08-30T07:36:46;98049.59;;;32.28;50.22
40872;BME280;26591;43.264;26.940;2023-08-30T07:39:11;98047.66;;;31.77;52.41
40872;BME280;26591;43.264;26.940;2023-08-30T07:41:37;98032.53;;;31.50;52.61
40872;BME280;26591;43.264;26.940;2023-08-30T07:44:03;98040.47;;;32.15;50.97
40872;BME280;26591;43.264;26.940;2023-08-30T07:46:28;98036.97;;;32.15;51.20
40872;BME280;26591;43.264;26.940;2023-08-30T07:48:54;98043.94;;;32.67;50.50
40872;BME280;26591;43.264;26.940;2023-08-30T07:51:21;98044.31;;;31.72;52.23
40872;BME280;26591;43.264;26.940;2023-08-30T07:53:47;98050.81;;;32.09;50.99
40872;BME280;26591;43.264;26.940;2023-08-30T07:56:13;98045.94;;;32.15;50.62
40872;BME280;26591;43.264;26.940;2023-08-30T07:58:40;98044.16;;;32.19;51.37
40872;BME280;26591;43.264;26.940;2023-08-30T08:01:06;98041.06;;;32.97;49.73
40872;BME280;26591;43.264;26.940;2023-08-30T08:03:31;98037.94;;;32.52;48.61
40872;BME280;26591;43.264;26.940;2023-08-30T08:05:59;98033.69;;;32.00;49.17
40872;BME280;26591;43.264;26.940;2023-08-30T08:08:25;98031.06;;;32.25;49.10
40872;BME280;26591;43.264;26.940;2023-08-30T08:10:51;98029.41;;;31.30;50.93
40872;BME280;26591;43.264;26.940;2023-08-30T08:13:16;98026.41;;;31.14;51.77
40872;BME280;26591;43.264;26.940;2023-08-30T08:15:42;98022.06;;;32.24;49.01
40872;BME280;26591;43.264;26.940;2023-08-30T08:18:09;98036.75;;;32.20;47.05
40872;BME280;26591;43.264;26.940;2023-08-30T08:20:35;98015.78;;;31.51;48.75
40872;BME280;26591;43.264;26.940;2023-08-30T08:23:02;98029.34;;;31.99;49.21
40872;BME280;26591;43.264;26.940;2023-08-30T08:25:28;98021.72;;;31.84;49.33
40872;BME280;26591;43.264;26.940;2023-08-30T08:27:54;98029.63;;;32.49;47.53
40872;BME280;26591;43.264;26.940;2023-08-30T08:30:19;98037.66;;;31.81;48.34
40872;BME280;26591;43.264;26.940;2023-08-30T08:32:46;98021.38;;;31.85;48.32
40872;BME280;26591;43.264;26.940;2023-08-30T08:35:12;98027.84;;;32.23;47.06
40872;BME280;26591;43.264;26.940;2023-08-30T08:37:37;98023.59;;;31.62;48.73
40872;BME280;26591;43.264;26.940;2023-08-30T08:40:03;98018.19;;;31.23;49.02
40872;BME280;26591;43.264;26.940;2023-08-30T08:42:34;98017.09;;;31.07;48.89
40872;BME280;26591;43.264;26.940;2023-08-30T08:45:04;98008.91;;;31.45;48.30
40872;BME280;26591;43.264;26.940;2023-08-30T08:47:30;98013.59;;;31.96;47.24
40872;BME280;26591;43.264;26.940;2023-08-30T08:49:57;98008.31;;;32.54;46.83
40872;BME280;26591;43.264;26.940;2023-08-30T08:52:24;98006.16;;;32.72;46.58
40872;BME280;26591;43.264;26.940;2023-08-30T08:54:50;98010.38;;;33.04;46.78
40872;BME280;26591;43.264;26.940;2023-08-30T08:57:17;98001.94;;;33.58;45.67
40872;BME280;26591;43.264;26.940;2023-08-30T08:59:44;97997.38;;;33.62;45.11
40872;BME280;26591;43.264;26.940;2023-08-30T09:02:12;98002.91;;;33.91;44.68
40872;BME280;26591;43.264;26.940;2023-08-30T09:04:39;98004.09;;;33.65;45.74
40872;BME280;26591;43.264;26.940;2023-08-30T09:07:04;98001.22;;;33.24;45.72
40872;BME280;26591;43.264;26.940;2023-08-30T09:09:30;97996.34;;;33.42;43.70
40872;BME280;26591;43.264;26.940;2023-08-30T09:11:56;97998.28;;;33.17;43.89
40872;BME280;26591;43.264;26.940;2023-08-30T09:14:23;98002.34;;;32.98;45.55
40872;BME280;26591;43.264;26.940;2023-08-30T09:16:59;97996.78;;;32.61;45.64
40872;BME280;26591;43.264;26.940;2023-08-30T09:19:26;98002.50;;;31.71;47.17
40872;BME280;26591;43.264;26.940;2023-08-30T09:21:57;97993.13;;;31.51;47.15
40872;BME280;26591;43.264;26.940;2023-08-30T09:24:23;97993.81;;;31.00;48.90
40872;BME280;26591;43.264;26.940;2023-08-30T09:26:53;97990.47;;;30.86;50.36
40872;BME280;26591;43.264;26.940;2023-08-30T09:29:19;97985.63;;;30.92;49.90
40872;BME280;26591;43.264;26.940;2023-08-30T09:31:46;97982.91;;;30.92;48.70
40872;BME280;26591;43.264;26.940;2023-08-30T09:34:11;97970.31;;;30.52;48.98
40872;BME280;26591;43.264;26.940;2023-08-30T09:36:39;97974.00;;;31.12;49.32
40872;BME280;26591;43.264;26.940;2023-08-30T09:41:34;97965.28;;;31.28;46.89
40872;BME280;26591;43.264;26.940;2023-08-30T09:44:06;97975.22;;;31.84;47.30
40872;BME280;26591;43.264;26.940;2023-08-30T09:46:32;97975.94;;;31.72;45.07
40872;BME280;26591;43.264;26.940;2023-08-30T09:48:57;97974.97;;;31.46;45.37
40872;BME280;26591;43.264;26.940;2023-08-30T09:51:24;97967.69;;;31.80;45.98
40872;BME280;26591;43.264;26.940;2023-08-30T09:53:53;97963.63;;;32.08;44.70
40872;BME280;26591;43.264;26.940;2023-08-30T09:56:24;97956.41;;;32.03;44.71
40872;BME280;26591;43.264;26.940;2023-08-30T09:58:50;97953.97;;;32.23;44.01
40872;BME280;26591;43.264;26.940;2023-08-30T10:01:16;97951.44;;;32.39;43.92
40872;BME280;26591;43.264;26.940;2023-08-30T10:03:42;97958.00;;;32.71;44.23
40872;BME280;26591;43.264;26.940;2023-08-30T10:06:08;97956.69;;;32.90;42.67
40872;BME280;26591;43.264;26.940;2023-08-30T10:08:34;97951.09;;;32.86;43.07
40872;BME280;26591;43.264;26.940;2023-08-30T10:11:02;97946.22;;;32.59;43.71
40872;BME280;26591;43.264;26.940;2023-08-30T10:13:29;97944.72;;;33.07;43.01
40872;BME280;26591;43.264;26.940;2023-08-30T10:16:00;97942.31;;;33.06;43.63
40872;BME280;26591;43.264;26.940;2023-08-30T10:18:29;97935.22;;;33.42;41.22
40872;BME280;26591;43.264;26.940;2023-08-30T10:20:56;97947.28;;;33.78;40.47
40872;BME280;26591;43.264;26.940;2023-08-30T10:23:24;97937.19;;;33.41;41.28
40872;BME280;26591;43.264;26.940;2023-08-30T10:25:53;97935.78;;;34.01;40.32
40872;BME280;26591;43.264;26.940;2023-08-30T10:28:19;97939.91;;;34.23;40.37
40872;BME280;26591;43.264;26.940;2023-08-30T10:30:47;97938.44;;;33.07;41.80
40872;BME280;26591;43.264;26.940;2023-08-30T10:33:13;97933.66;;;33.82;40.98
40872;BME280;26591;43.264;26.940;2023-08-30T10:35:49;97941.13;;;33.56;40.09
40872;BME280;26591;43.264;26.940;2023-08-30T10:38:27;97936.75;;;33.80;40.38
40872;BME280;26591;43.264;26.940;2023-08-30T10:40:54;97937.75;;;34.16;40.49
40872;BME280;26591;43.264;26.940;2023-08-30T10:43:30;97919.00;;;34.47;38.98
40872;BME280;26591;43.264;26.940;2023-08-30T10:46:02;97932.56;;;34.27;39.57
40872;BME280;26591;43.264;26.940;2023-08-30T10:48:38;97929.66;;;34.36;39.58
40872;BME280;26591;43.264;26.940;2023-08-30T10:51:07;97927.44;;;33.97;39.51
40872;BME280;26591;43.264;26.940;2023-08-30T10:53:41;97926.59;;;34.09;39.68
40872;BME280;26591;43.264;26.940;2023-08-30T10:56:11;97921.66;;;34.15;39.91
40872;BME280;26591;43.264;26.940;2023-08-30T10:58:43;97923.25;;;34.76;39.34
40872;BME280;26591;43.264;26.940;2023-08-30T11:01:10;97918.38;;;35.02;38.20
40872;BME280;26591;43.264;26.940;2023-08-30T11:03:40;97907.41;;;35.37;37.76
40872;BME280;26591;43.264;26.940;2023-08-30T11:06:07;97916.94;;;34.92;38.05
40872;BME280;26591;43.264;26.940;2023-08-30T11:08:32;97903.91;;;33.84;39.42
40872;BME280;26591;43.264;26.940;2023-08-30T11:11:03;97913.50;;;33.24;40.91
40872;BME280;26591;43.264;26.940;2023-08-30T11:13:30;97901.41;;;33.25;41.22
40872;BME280;26591;43.264;26.940;2023-08-30T11:16:02;97900.41;;;33.30;40.72
40872;BME280;26591;43.264;26.940;2023-08-30T11:18:39;97894.59;;;32.82;41.92
40872;BME280;26591;43.264;26.940;2023-08-30T11:21:05;97886.59;;;32.89;42.47
40872;BME280;26591;43.264;26.940;2023-08-30T11:23:31;97891.06;;;32.81;42.99
40872;BME280;26591;43.264;26.940;2023-08-30T11:25:58;97883.88;;;32.89;41.62
40872;BME280;26591;43.264;26.940;2023-08-30T11:28:24;97875.03;;;33.74;40.72
40872;BME280;26591;43.264;26.940;2023-08-30T11:30:53;97873.41;;;34.14;40.10
40872;BME280;26591;43.264;26.940;2023-08-30T11:33:20;97873.72;;;33.96;39.59
40872;BME280;26591;43.264;26.940;2023-08-30T11:35:46;97877.66;;;34.11;39.25
40872;BME280;26591;43.264;26.940;2023-08-30T11:38:13;97871.19;;;34.19;39.50
40872;BME280;26591;43.264;26.940;2023-08-30T11:40:39;97862.88;;;34.16;39.51
40872;BME280;26591;43.264;26.940;2023-08-30T11:43:06;97873.97;;;34.67;38.76
40872;BME280;26591;43.264;26.940;2023-08-30T11:45:32;97859.22;;;34.12;40.16
40872;BME280;26591;43.264;26.940;2023-08-30T11:48:00;97865.16;;;34.14;39.75
40872;BME280;26591;43.264;26.940;2023-08-30T11:50:26;97865.56;;;33.71;40.22
40872;BME280;26591;43.264;26.940;2023-08-30T11:52:52;97847.19;;;34.16;40.26
40872;BME280;26591;43.264;26.940;2023-08-30T11:55:20;97856.28;;;34.04;39.82
40872;BME280;26591;43.264;26.940;2023-08-30T11:57:48;97855.16;;;33.36;41.17
40872;BME280;26591;43.264;26.940;2023-08-30T12:00:15;97843.69;;;32.81;42.62
40872;BME280;26591;43.264;26.940;2023-08-30T12:02:40;97848.34;;;32.80;42.63
40872;BME280;26591;43.264;26.940;2023-08-30T12:05:10;97841.28;;;32.92;43.24
40872;BME280;26591;43.264;26.940;2023-08-30T12:07:36;97839.53;;;33.12;42.89
40872;BME280;26591;43.264;26.940;2023-08-30T12:10:09;97839.72;;;33.31;42.12
40872;BME280;26591;43.264;26.940;2023-08-30T12:12:36;97840.34;;;33.94;41.40
40872;BME280;26591;43.264;26.940;2023-08-30T12:15:08;97835.72;;;33.70;40.75
40872;BME280;26591;43.264;26.940;2023-08-30T12:17:37;97843.91;;;34.11;40.25
40872;BME280;26591;43.264;26.940;2023-08-30T12:20:03;97845.00;;;33.65;41.37
40872;BME280;26591;43.264;26.940;2023-08-30T12:22:37;97842.63;;;33.10;42.17
40872;BME280;26591;43.264;26.940;2023-08-30T12:25:04;97834.66;;;32.68;43.05
40872;BME280;26591;43.264;26.940;2023-08-30T12:27:29;97833.19;;;33.48;42.03
40872;BME280;26591;43.264;26.940;2023-08-30T12:29:55;97836.38;;;33.79;41.31
40872;BME280;26591;43.264;26.940;2023-08-30T12:32:21;97836.03;;;33.52;41.42
40872;BME280;26591;43.264;26.940;2023-08-30T12:34:46;97836.34;;;32.97;42.44
40872;BME280;26591;43.264;26.940;2023-08-30T12:37:12;97839.69;;;32.91;42.96
40872;BME280;26591;43.264;26.940;2023-08-30T12:39:39;97842.25;;;31.91;44.18
40872;BME280;26591;43.264;26.940;2023-08-30T12:42:04;97829.72;;;31.69;44.88
40872;BME280;26591;43.264;26.940;2023-08-30T12:44:30;97830.19;;;31.92;45.11
40872;BME280;26591;43.264;26.940;2023-08-30T12:46:55;97814.72;;;32.09;44.51
40872;BME280;26591;43.264;26.940;2023-08-30T12:49:21;97830.66;;;32.78;43.06
40872;BME280;26591;43.264;26.940;2023-08-30T12:51:46;97816.06;;;32.61;42.87